Time;durP1;ratioP1;P1;durP2;ratioP2;P2;SDS_P1;SDS_P2;PMS_P1;PMS_P2;Temp;Humidity;BMP_temperature;BMP_pressure;BME280_temperature;BME280_humidity;BME280_pressure;Samples;Min_cycle;Max_cycle;Signal;HPM_P1;HPM_P2
2022/04/07 00:00:37;;;;;;;;;;;10.30;99.90;;;;;;6196552;23;20343;-85
2022/04/07 00:03:05;;;;;;;;;;;10.30;99.90;;;;;;6172356;23;19931;-84
2022/04/07 00:05:32;;;;;;;;;;;10.30;99.90;;;;;;6198121;23;19935;-83
2022/04/07 00:08:00;;;;;;;;;;;10.20;99.90;;;;;;6199372;23;19924;-84
2022/04/07 00:10:28;;;;;;;;;;;10.40;99.90;;;;;;6199824;23;19934;-84
2022/04/07 00:12:56;;;;;;;;;;;10.40;99.90;;;;;;6199464;23;20622;-85
2022/04/07 00:15:24;;;;;;;;;;;10.40;99.90;;;;;;6209087;23;19936;-85
2022/04/07 00:17:54;;;;;;;;;;;10.50;99.90;;;;;;6198093;23;19925;-85
2022/04/07 00:20:26;;;;;;;;;;;10.50;99.90;;;;;;6199136;23;19934;-86
2022/04/07 00:22:57;;;;;;;;;;;10.60;99.90;;;;;;6198852;23;19927;-85
2022/04/07 00:25:28;;;;;;;;;;;10.80;99.90;;;;;;6206492;23;19927;-84
2022/04/07 00:27:56;;;;;;;;;;;10.50;99.90;;;;;;6206135;23;19930;-86
2022/04/07 00:30:24;;;;;;;;;;;10.60;99.90;;;;;;6171833;23;19920;-85
2022/04/07 00:32:52;;;;;;;;;;;10.60;99.90;;;;;;6200899;23;19916;-85
2022/04/07 00:35:21;;;;;;;;;;;10.60;99.90;;;;;;6175994;23;19920;-84
2022/04/07 00:37:49;;;;;;;;;;;10.60;99.90;;;;;;6197003;23;20426;-84
2022/04/07 00:40:18;;;;;;;;;;;10.60;99.90;;;;;;6206681;23;19931;-84
2022/04/07 00:42:46;;;;;;;;;;;10.60;99.90;;;;;;6175632;23;19920;-85
2022/04/07 00:45:15;;;;;;;;;;;10.60;99.90;;;;;;6185931;23;20000;-85
2022/04/07 00:47:44;;;;;;;;;;;10.70;99.90;;;;;;6173347;23;19917;-83
2022/04/07 00:50:13;;;;;;;;;;;10.80;99.90;;;;;;6176461;23;19920;-85
2022/04/07 00:52:43;;;;;;;;;;;10.30;99.90;;;;;;6175041;23;19920;-85
2022/04/07 00:55:11;;;;;;;;;;;10.70;99.90;;;;;;6208776;23;19927;-85
2022/04/07 00:57:40;;;;;;;;;;;10.70;99.90;;;;;;6206921;23;19924;-84
2022/04/07 01:00:11;;;;;;;;;;;10.70;99.90;;;;;;6202792;23;19920;-84
2022/04/07 01:02:38;;;;;;;;;;;12.00;99.90;;;;;;6186463;23;19930;-85
2022/04/07 01:05:08;;;;;;;;;;;10.70;99.90;;;;;;6175369;23;19935;-87
2022/04/07 01:07:39;;;;;;;;;;;10.70;99.90;;;;;;6190870;23;19921;-86
2022/04/07 01:10:09;;;;;;;;;;;10.80;99.90;;;;;;6195134;23;19925;-86
2022/04/07 01:12:38;;;;;;;;;;;10.80;99.90;;;;;;6169532;23;19921;-84
2022/04/07 01:15:12;;;;;;;;;;;10.80;99.90;;;;;;6168235;23;19924;-85
2022/04/07 01:17:42;;;;;;;;;;;10.80;99.90;;;;;;6182822;23;19916;-85
2022/04/07 01:20:10;;;;;;;;;;;10.80;99.90;;;;;;6183426;23;19926;-86
2022/04/07 01:22:44;;;;;;;;;;;10.80;99.90;;;;;;6198952;23;19920;-86
2022/04/07 01:25:13;;;;;;;;;;;10.90;99.90;;;;;;6196702;23;19924;-87
2022/04/07 01:27:40;;;;;;;;;;;10.90;99.90;;;;;;6197333;23;19920;-85
2022/04/07 01:30:10;;;;;;;;;;;10.90;99.90;;;;;;6210266;23;19920;-85
2022/04/07 01:32:40;;;;;;;;;;;10.90;99.90;;;;;;6173632;23;19926;-86
2022/04/07 01:35:11;;;;;;;;;;;10.70;99.90;;;;;;6179328;23;19924;-83
2022/04/07 01:37:42;;;;;;;;;;;10.80;99.90;;;;;;6205034;23;19925;-85
2022/04/07 01:40:14;;;;;;;;;;;10.70;99.90;;;;;;6204350;23;19921;-85
2022/04/07 01:42:45;;;;;;;;;;;10.60;99.90;;;;;;6176539;23;19920;-83
2022/04/07 01:45:14;;;;;;;;;;;10.50;99.90;;;;;;6197651;23;19924;-84
2022/04/07 01:47:46;;;;;;;;;;;9.50;99.90;;;;;;6209653;23;19924;-83
2022/04/07 01:50:19;;;;;;;;;;;10.60;99.90;;;;;;6178994;23;19971;-83
2022/04/07 01:52:47;;;;;;;;;;;10.30;99.90;;;;;;6212719;23;19928;-85
2022/04/07 01:55:16;;;;;;;;;;;10.30;99.90;;;;;;6184822;23;19927;-84
2022/04/07 01:57:44;;;;;;;;;;;11.60;99.90;;;;;;6172694;23;19927;-84
2022/04/07 02:00:12;;;;;;;;;;;10.10;99.90;;;;;;6169630;23;19920;-84
2022/04/07 02:02:45;;;;;;;;;;;10.10;99.90;;;;;;6198808;23;19932;-83
2022/04/07 02:05:15;;;;;;;;;;;10.10;99.90;;;;;;6172458;23;19916;-84
2022/04/07 02:07:46;;;;;;;;;;;10.00;99.90;;;;;;6199174;23;19920;-83
2022/04/07 02:10:15;;;;;;;;;;;10.00;99.90;;;;;;6149387;23;19927;-85
2022/04/07 02:12:44;;;;;;;;;;;9.90;99.90;;;;;;6211386;23;20308;-84
2022/04/07 02:15:13;;;;;;;;;;;9.60;99.90;;;;;;6173800;23;19916;-84
2022/04/07 02:17:42;;;;;;;;;;;9.30;99.90;;;;;;6208300;23;19916;-84
2022/04/07 02:20:10;;;;;;;;;;;9.10;99.90;;;;;;6147470;23;19927;-82
2022/04/07 02:22:41;;;;;;;;;;;9.00;99.90;;;;;;6209523;23;19920;-83
2022/04/07 02:25:09;;;;;;;;;;;8.90;99.90;;;;;;6173940;23;19972;-82
2022/04/07 02:27:41;;;;;;;;;;;8.50;99.90;;;;;;6171050;23;19924;-82
2022/04/07 02:30:10;;;;;;;;;;;8.70;99.90;;;;;;6196799;23;19921;-83
2022/04/07 02:32:38;;;;;;;;;;;8.70;99.90;;;;;;6174196;23;19920;-83
2022/04/07 02:35:07;;;;;;;;;;;8.70;99.90;;;;;;6171443;23;19924;-83
2022/04/07 02:37:35;;;;;;;;;;;8.70;99.90;;;;;;6147780;23;19920;-83
2022/04/07 02:40:01;;;;;;;;;;;8.70;99.90;;;;;;6197049;23;19908;-83
2022/04/07 02:42:29;;;;;;;;;;;8.70;99.90;;;;;;6171732;23;19928;-84
2022/04/07 02:44:57;;;;;;;;;;;8.30;99.90;;;;;;6171863;23;20622;-83
2022/04/07 02:47:31;;;;;;;;;;;8.60;99.90;;;;;;6208065;23;19920;-82
2022/04/07 02:50:00;;;;;;;;;;;8.70;99.90;;;;;;6147184;23;19924;-83
2022/04/07 02:52:28;;;;;;;;;;;8.70;99.90;;;;;;6182098;23;19924;-82
2022/04/07 02:54:56;;;;;;;;;;;8.60;99.90;;;;;;6208530;23;19927;-83
2022/04/07 02:57:25;;;;;;;;;;;8.50;99.90;;;;;;6181143;23;19927;-82
2022/04/07 02:59:53;;;;;;;;;;;8.50;99.90;;;;;;6202748;23;20123;-83
2022/04/07 03:02:20;;;;;;;;;;;8.60;99.90;;;;;;6172835;23;19927;-83
2022/04/07 03:04:48;;;;;;;;;;;10.00;99.90;;;;;;6172447;23;19920;-82
2022/04/07 03:07:16;;;;;;;;;;;8.50;99.90;;;;;;6209366;23;19972;-83
2022/04/07 03:09:44;;;;;;;;;;;8.50;99.90;;;;;;6145373;23;19935;-83
2022/04/07 03:12:14;;;;;;;;;;;8.50;99.90;;;;;;6171019;23;20243;-83
2022/04/07 03:14:42;;;;;;;;;;;8.50;99.90;;;;;;6196262;23;19924;-83
2022/04/07 03:17:10;;;;;;;;;;;8.50;99.90;;;;;;6195935;23;19920;-82
2022/04/07 03:19:38;;;;;;;;;;;8.50;99.90;;;;;;6175081;23;19934;-83
2022/04/07 03:22:06;;;;;;;;;;;8.40;99.90;;;;;;6176055;23;19931;-84
2022/04/07 03:24:33;;;;;;;;;;;8.40;99.90;;;;;;6202412;23;19920;-83
2022/04/07 03:27:06;;;;;;;;;;;8.40;99.90;;;;;;6211575;23;19920;-84
2022/04/07 03:29:35;;;;;;;;;;;7.30;99.90;;;;;;6172127;23;19926;-83
2022/04/07 03:32:04;;;;;;;;;;;8.30;99.90;;;;;;6198388;23;19926;-83
2022/04/07 03:34:36;;;;;;;;;;;8.30;99.90;;;;;;6208509;23;19924;-83
2022/04/07 03:37:06;;;;;;;;;;;8.30;99.90;;;;;;6201151;23;19931;-83
2022/04/07 03:39:37;;;;;;;;;;;8.20;99.90;;;;;;6174980;23;19920;-83
2022/04/07 03:42:05;;;;;;;;;;;8.20;99.90;;;;;;6171448;23;19927;-82
2022/04/07 03:44:33;;;;;;;;;;;8.10;99.90;;;;;;6199780;23;19930;-82
2022/04/07 03:47:01;;;;;;;;;;;8.10;99.90;;;;;;6172624;23;19921;-83
2022/04/07 03:49:29;;;;;;;;;;;8.00;99.90;;;;;;6195239;23;19930;-83
2022/04/07 03:51:57;;;;;;;;;;;8.00;99.90;;;;;;6206812;23;19920;-82
2022/04/07 03:54:26;;;;;;;;;;;8.20;99.90;;;;;;6203064;23;19920;-83
2022/04/07 03:56:56;;;;;;;;;;;7.60;99.90;;;;;;6172683;23;19927;-84
2022/04/07 03:59:23;;;;;;;;;;;7.70;99.90;;;;;;6172745;23;19924;-82
2022/04/07 04:01:51;;;;;;;;;;;7.70;99.90;;;;;;6195351;23;19916;-83
2022/04/07 04:04:22;;;;;;;;;;;7.80;99.90;;;;;;6206665;23;20354;-82
2022/04/07 04:06:50;;;;;;;;;;;7.50;99.90;;;;;;6170199;23;19926;-82
2022/04/07 04:09:17;;;;;;;;;;;7.60;99.90;;;;;;6204281;23;19931;-83
2022/04/07 04:11:45;;;;;;;;;;;7.60;99.90;;;;;;6180707;23;19924;-83
2022/04/07 04:14:13;;;;;;;;;;;7.60;99.90;;;;;;6196567;23;19920;-84
2022/04/07 04:16:42;;;;;;;;;;;7.60;99.90;;;;;;6170143;23;20394;-84
2022/04/07 04:19:10;;;;;;;;;;;7.60;99.90;;;;;;6206642;23;19930;-82
2022/04/07 04:21:38;;;;;;;;;;;7.60;99.90;;;;;;6206928;23;19931;-83
2022/04/07 04:24:06;;;;;;;;;;;7.60;99.90;;;;;;6198605;23;19921;-83
2022/04/07 04:26:34;;;;;;;;;;;7.60;99.90;;;;;;6197496;23;19920;-83
2022/04/07 04:29:02;;;;;;;;;;;7.60;99.90;;;;;;6169359;23;19926;-83
2022/04/07 04:31:29;;;;;;;;;;;7.60;99.90;;;;;;6206967;23;19931;-84
2022/04/07 04:33:57;;;;;;;;;;;7.60;99.90;;;;;;6169396;23;19934;-85
2022/04/07 04:36:25;;;;;;;;;;;7.60;99.90;;;;;;6181773;23;20449;-83
2022/04/07 04:38:52;;;;;;;;;;;7.60;99.90;;;;;;6207712;23;20241;-83
2022/04/07 04:41:22;;;;;;;;;;;7.60;99.90;;;;;;6210047;23;20342;-84
2022/04/07 04:43:50;;;;;;;;;;;7.50;99.90;;;;;;6201143;23;20309;-85
2022/04/07 04:46:18;;;;;;;;;;;7.50;99.90;;;;;;6201031;23;19980;-86
2022/04/07 04:48:47;;;;;;;;;;;7.50;99.90;;;;;;6175833;23;19928;-83
2022/04/07 04:51:14;;;;;;;;;;;7.50;99.90;;;;;;6198497;23;19920;-85
2022/04/07 04:53:43;;;;;;;;;;;7.40;99.90;;;;;;6173278;23;19916;-86
2022/04/07 04:56:12;;;;;;;;;;;7.40;99.90;;;;;;6195695;23;19931;-84
2022/04/07 04:58:41;;;;;;;;;;;8.40;99.90;;;;;;6207377;23;19924;-83
2022/04/07 05:01:10;;;;;;;;;;;7.50;99.90;;;;;;6172443;23;19920;-85
2022/04/07 05:03:39;;;;;;;;;;;7.40;99.90;;;;;;6173391;23;19924;-84
2022/04/07 05:06:09;;;;;;;;;;;7.40;99.90;;;;;;6198443;23;19920;-84
2022/04/07 05:08:40;;;;;;;;;;;8.60;99.90;;;;;;6208741;23;19920;-86
2022/04/07 05:11:08;;;;;;;;;;;7.50;99.90;;;;;;6176748;23;19934;-85
2022/04/07 05:13:37;;;;;;;;;;;7.50;99.90;;;;;;6203864;23;19932;-84
2022/04/07 05:16:15;;;;;;;;;;;7.50;99.90;;;;;;6200749;23;19920;-87
2022/04/07 05:18:48;;;;;;;;;;;7.50;99.90;;;;;;6174984;23;19920;-84
2022/04/07 05:21:16;;;;;;;;;;;7.50;99.90;;;;;;6203791;23;19921;-84
2022/04/07 05:23:44;;;;;;;;;;;7.50;99.90;;;;;;6212503;23;19920;-85
2022/04/07 05:26:15;;;;;;;;;;;7.90;99.90;;;;;;6176431;23;19951;-86
2022/04/07 05:28:42;;;;;;;;;;;7.50;99.90;;;;;;6200331;23;19930;-84
2022/04/07 05:31:12;;;;;;;;;;;7.50;99.90;;;;;;6212813;23;19921;-85
2022/04/07 05:33:44;;;;;;;;;;;7.40;99.90;;;;;;6212886;23;20258;-84
2022/04/07 05:36:12;;;;;;;;;;;7.50;99.90;;;;;;6178807;23;19920;-83
2022/04/07 05:38:40;;;;;;;;;;;7.40;99.90;;;;;;6176477;23;19928;-84
2022/04/07 05:41:08;;;;;;;;;;;7.40;99.90;;;;;;6200528;23;19938;-86
2022/04/07 05:43:35;;;;;;;;;;;7.40;99.90;;;;;;6201582;23;19927;-86
2022/04/07 05:46:03;;;;;;;;;;;7.40;99.90;;;;;;6174626;23;19950;-85
2022/04/07 05:48:32;;;;;;;;;;;7.40;99.90;;;;;;6200258;23;19924;-85
2022/04/07 05:51:01;;;;;;;;;;;7.40;99.90;;;;;;6209509;23;19926;-84
2022/04/07 05:53:29;;;;;;;;;;;7.40;99.90;;;;;;6203623;23;19924;-84
2022/04/07 05:55:58;;;;;;;;;;;7.50;99.90;;;;;;6175771;23;20593;-82
2022/04/07 05:58:26;;;;;;;;;;;7.50;99.90;;;;;;6208597;23;19927;-83
2022/04/07 06:00:54;;;;;;;;;;;7.50;99.90;;;;;;6162382;23;19920;-83
2022/04/07 06:03:21;;;;;;;;;;;7.50;99.90;;;;;;6169645;23;19931;-84
2022/04/07 06:05:52;;;;;;;;;;;7.50;99.90;;;;;;6122867;23;20025;-84
2022/04/07 06:08:20;;;;;;;;;;;7.50;99.90;;;;;;6146709;23;19924;-84
2022/04/07 06:10:48;;;;;;;;;;;7.60;99.90;;;;;;6180843;23;19924;-83
2022/04/07 06:13:16;;;;;;;;;;;7.60;99.90;;;;;;6178783;23;19920;-85
2022/04/07 06:15:46;;;;;;;;;;;7.60;99.90;;;;;;6143436;23;19921;-86
2022/04/07 06:18:13;;;;;;;;;;;7.60;99.90;;;;;;6173279;23;19921;-86
2022/04/07 06:20:42;;;;;;;;;;;7.60;99.90;;;;;;6171877;23;19921;-83
2022/04/07 06:23:11;;;;;;;;;;;7.60;99.90;;;;;;6171345;23;19931;-83
2022/04/07 06:25:39;;;;;;;;;;;7.70;99.90;;;;;;6168893;23;19916;-85
2022/04/07 06:28:07;;;;;;;;;;;7.70;99.90;;;;;;6152790;23;19915;-84
2022/04/07 06:30:35;;;;;;;;;;;7.00;99.90;;;;;;6179781;23;19935;-85
2022/04/07 06:33:02;;;;;;;;;;;8.80;99.90;;;;;;6143009;23;19921;-84
2022/04/07 06:35:30;;;;;;;;;;;7.80;99.90;;;;;;6144906;23;19931;-86
2022/04/07 06:38:16;;;;;;;;;;;;;;;;;;;;;
2022/04/07 06:40:56;;;;;;;;;;;8.00;99.90;;;;;;6148144;23;19920;-85
2022/04/07 06:43:30;;;;;;;;;;;8.10;99.90;;;;;;6173590;23;19919;-84
2022/04/07 06:46:02;;;;;;;;;;;8.00;99.90;;;;;;6170010;23;19925;-85
2022/04/07 06:48:31;;;;;;;;;;;9.20;99.90;;;;;;6173168;23;20012;-84
2022/04/07 06:51:02;;;;;;;;;;;8.10;99.90;;;;;;6168792;23;19920;-87
2022/04/07 06:53:30;;;;;;;;;;;8.10;99.90;;;;;;6171953;23;20291;-85
2022/04/07 06:55:59;;;;;;;;;;;8.10;99.90;;;;;;6169047;23;20156;-85
2022/04/07 06:58:28;;;;;;;;;;;7.50;99.90;;;;;;6145676;23;19921;-85
2022/04/07 07:00:59;;;;;;;;;;;8.30;99.90;;;;;;6162498;23;19935;-85
2022/04/07 07:03:28;;;;;;;;;;;9.90;99.90;;;;;;6169946;23;19925;-85
2022/04/07 07:05:58;;;;;;;;;;;8.60;99.90;;;;;;6155059;23;20216;-83
2022/04/07 07:08:30;;;;;;;;;;;8.50;99.90;;;;;;6143996;23;19921;-84
2022/04/07 07:10:59;;;;;;;;;;;8.40;99.90;;;;;;6179639;23;19935;-82
2022/04/07 07:13:28;;;;;;;;;;;8.50;99.90;;;;;;6144670;23;19935;-84
2022/04/07 07:15:58;;;;;;;;;;;8.80;99.90;;;;;;6144807;23;19920;-85
2022/04/07 07:18:28;;;;;;;;;;;8.40;99.90;;;;;;6148356;23;19904;-83
2022/04/07 07:20:59;;;;;;;;;;;8.40;99.90;;;;;;6173201;23;19931;-85
2022/04/07 07:23:28;;;;;;;;;;;8.40;99.90;;;;;;6172717;23;19929;-84
2022/04/07 07:25:56;;;;;;;;;;;8.50;99.90;;;;;;6145622;23;19920;-83
2022/04/07 07:28:24;;;;;;;;;;;8.50;99.90;;;;;;6173723;23;19920;-83
2022/04/07 07:34:34;;;;;;;;;;;8.60;99.90;;;;;;6179581;23;19912;-85
2022/04/07 07:37:02;;;;;;;;;;;8.70;99.90;;;;;;6181405;23;19920;-83
2022/04/07 07:39:30;;;;;;;;;;;8.70;99.90;;;;;;6175848;23;19924;-85
2022/04/07 07:41:58;;;;;;;;;;;9.00;99.90;;;;;;6175021;23;19928;-86
2022/04/07 07:44:26;;;;;;;;;;;9.50;99.90;;;;;;6170767;23;19927;-84
2022/04/07 07:46:56;;;;;;;;;;;9.00;99.90;;;;;;6170064;23;19926;-86
2022/04/07 07:49:27;;;;;;;;;;;8.90;99.90;;;;;;6144889;23;19920;-83
2022/04/07 07:52:00;;;;;;;;;;;9.00;99.90;;;;;;6171284;23;19921;-86
2022/04/07 07:54:31;;;;;;;;;;;9.10;99.90;;;;;;6147668;23;19924;-85
2022/04/07 07:57:04;;;;;;;;;;;9.30;99.90;;;;;;6144336;23;19930;-85
2022/04/07 07:59:33;;;;;;;;;;;9.10;99.90;;;;;;6151755;23;19931;-85
2022/04/07 08:02:03;;;;;;;;;;;9.30;99.90;;;;;;6174838;23;19931;-84
2022/04/07 08:04:32;;;;;;;;;;;9.30;99.90;;;;;;6184920;23;19930;-84
2022/04/07 08:07:00;;;;;;;;;;;9.30;99.90;;;;;;6173051;23;19920;-86
2022/04/07 08:09:29;;;;;;;;;;;9.30;99.90;;;;;;6174480;23;19924;-85
2022/04/07 08:11:58;;;;;;;;;;;9.30;99.90;;;;;;6149445;23;19926;-83
2022/04/07 08:14:31;;;;;;;;;;;9.30;99.90;;;;;;6203405;23;19934;-84
2022/04/07 08:17:08;;;;;;;;;;;9.30;99.90;;;;;;6199985;23;19908;-85
2022/04/07 08:19:40;;;;;;;;;;;9.30;99.90;;;;;;6198270;23;19930;-83
2022/04/07 08:22:13;;;;;;;;;;;9.40;99.90;;;;;;6207750;23;19930;-84
2022/04/07 08:24:44;;;;;;;;;;;9.50;99.90;;;;;;6200631;23;19920;-86
2022/04/07 08:27:15;;;;;;;;;;;10.00;99.90;;;;;;6148611;23;19927;-85
2022/04/07 08:29:47;;;;;;;;;;;9.70;99.90;;;;;;6200954;23;19920;-86
2022/04/07 08:32:15;;;;;;;;;;;9.60;99.90;;;;;;6174023;23;19920;-84
2022/04/07 08:34:44;;;;;;;;;;;10.30;99.90;;;;;;6213626;23;19924;-84
2022/04/07 08:37:40;;;;;;;;;;;8.20;99.90;;;;;;6178082;23;19930;-85
2022/04/07 08:40:08;;;;;;;;;;;9.80;99.90;;;;;;6217218;23;19927;-84
2022/04/07 08:42:37;;;;;;;;;;;9.90;99.90;;;;;;6182008;23;19924;-85
2022/04/07 08:45:06;;;;;;;;;;;10.00;99.90;;;;;;6180713;23;19920;-84
2022/04/07 08:48:03;;;;;;;;;;;9.90;99.90;;;;;;6179535;23;19926;-85
2022/04/07 08:50:37;;;;;;;;;;;10.20;99.90;;;;;;6191744;23;19908;-86
2022/04/07 08:53:13;;;;;;;;;;;10.10;99.90;;;;;;6181608;23;19928;-83
2022/04/07 08:56:06;;;;;;;;;;;10.10;99.90;;;;;;6204456;23;19930;-85
2022/04/07 08:58:34;;;;;;;;;;;10.40;99.90;;;;;;6198594;23;19924;-85
2022/04/07 09:01:05;;;;;;;;;;;10.20;99.90;;;;;;6201465;23;19924;-86
2022/04/07 09:03:33;;;;;;;;;;;10.20;99.90;;;;;;6186399;23;19926;-83
2022/04/07 09:06:05;;;;;;;;;;;10.20;99.90;;;;;;6204047;23;19924;-85
2022/04/07 09:08:40;;;;;;;;;;;10.50;99.90;;;;;;6211993;23;19926;-83
2022/04/07 09:11:17;;;;;;;;;;;10.40;99.20;;;;;;6153272;23;19925;-85
2022/04/07 09:13:54;;;;;;;;;;;10.30;99.40;;;;;;6179382;23;19936;-85
2022/04/07 09:16:24;;;;;;;;;;;10.70;99.90;;;;;;6189160;23;19908;-85
2022/04/07 09:18:52;;;;;;;;;;;10.50;99.80;;;;;;6212638;23;19920;-84
2022/04/07 09:21:25;;;;;;;;;;;10.80;99.90;;;;;;6213243;23;19920;-86
2022/04/07 09:23:58;;;;;;;;;;;10.60;98.90;;;;;;6153140;23;19921;-84
2022/04/07 09:26:28;;;;;;;;;;;9.80;99.20;;;;;;6175467;23;19939;-86
2022/04/07 09:29:15;;;;;;;;;;;10.80;99.10;;;;;;6180419;23;19922;-85
2022/04/07 09:31:53;;;;;;;;;;;11.00;98.90;;;;;;6203344;23;19924;-86
2022/04/07 09:34:44;;;;;;;;;;;9.20;98.10;;;;;;6176891;23;19920;-85
2022/04/07 09:37:13;;;;;;;;;;;10.90;98.30;;;;;;6178991;23;19930;-87
2022/04/07 09:39:43;;;;;;;;;;;10.90;98.60;;;;;;6206015;23;19908;-87
2022/04/07 09:42:26;;;;;;;;;;;11.00;97.70;;;;;;6205263;23;19920;-86
2022/04/07 09:45:01;;;;;;;;;;;11.00;97.90;;;;;;6203435;23;19939;-86
2022/04/07 09:47:49;;;;;;;;;;;11.20;97.90;;;;;;6156013;23;19921;-87
2022/04/07 09:50:20;;;;;;;;;;;11.20;97.80;;;;;;6181362;23;19938;-85
2022/04/07 09:52:56;;;;;;;;;;;11.20;97.30;;;;;;6197226;23;19939;-86
2022/04/07 09:55:34;;;;;;;;;;;11.80;97.70;;;;;;6212660;23;19920;-87
2022/04/07 09:58:11;;;;;;;;;;;11.40;96.80;;;;;;6178182;23;19920;-85
2022/04/07 10:00:45;;;;;;;;;;;11.40;96.60;;;;;;6206922;23;19917;-85
2022/04/07 10:03:38;;;;;;;;;;;11.70;96.30;;;;;;6176401;23;19909;-86
2022/04/07 10:06:08;;;;;;;;;;;10.90;95.80;;;;;;6147958;23;19921;-86
2022/04/07 10:08:37;;;;;;;;;;;11.50;95.20;;;;;;6151603;23;19927;-84
2022/04/07 10:11:33;;;;;;;;;;;11.60;94.90;;;;;;6144429;23;19921;-88
2022/04/07 10:14:03;;;;;;;;;;;12.30;95.30;;;;;;6186986;23;19924;-87
2022/04/07 10:16:52;;;;;;;;;;;11.60;95.50;;;;;;6155218;23;19908;-87
2022/04/07 10:19:36;;;;;;;;;;;11.00;95.60;;;;;;6152876;23;19925;-84
2022/04/07 10:22:32;;;;;;;;;;;11.40;94.90;;;;;;6157267;23;19929;-89
2022/04/07 10:25:03;;;;;;;;;;;11.40;94.60;;;;;;6158798;23;19920;-85
2022/04/07 10:27:43;;;;;;;;;;;11.40;95.00;;;;;;6163175;23;19920;-85
2022/04/07 10:30:16;;;;;;;;;;;11.30;94.30;;;;;;6151847;23;19927;-88
2022/04/07 10:32:49;;;;;;;;;;;11.20;94.00;;;;;;6179390;23;19924;-86
2022/04/07 10:35:34;;;;;;;;;;;11.30;93.90;;;;;;6140514;23;19927;-86
2022/04/07 10:38:07;;;;;;;;;;;11.20;94.40;;;;;;6175565;23;19920;-85
2022/04/07 10:40:52;;;;;;;;;;;10.60;94.60;;;;;;6174280;23;19925;-86
2022/04/07 10:43:43;;;;;;;;;;;11.30;94.20;;;;;;6120635;23;19930;-87
2022/04/07 10:46:17;;;;;;;;;;;11.40;94.70;;;;;;6123107;23;19920;-87
2022/04/07 10:48:50;;;;;;;;;;;11.80;93.70;;;;;;6123313;23;19924;-86
2022/04/07 10:51:45;;;;;;;;;;;12.00;93.80;;;;;;6183563;23;19931;-84
2022/04/07 10:54:21;;;;;;;;;;;11.70;93.40;;;;;;6158413;23;19920;-87
2022/04/07 10:56:59;;;;;;;;;;;11.60;93.50;;;;;;6171851;23;19921;-88
2022/04/07 10:59:31;;;;;;;;;;;11.70;93.40;;;;;;6173530;23;19927;-86
2022/04/07 11:02:06;;;;;;;;;;;11.70;93.40;;;;;;6139870;23;19925;-86
2022/04/07 11:05:10;;;;;;;;;;;11.80;93.10;;;;;;6112257;23;19925;-85
2022/04/07 11:07:55;;;;;;;;;;;11.70;93.20;;;;;;6116511;23;19925;-84
2022/04/07 11:10:45;;;;;;;;;;;11.90;93.10;;;;;;6147767;23;20243;-87
2022/04/07 11:13:15;;;;;;;;;;;11.90;92.80;;;;;;6140550;23;19922;-85
2022/04/07 11:16:10;;;;;;;;;;;12.10;92.60;;;;;;6103076;23;19920;-84
2022/04/07 11:19:09;;;;;;;;;;;12.10;92.40;;;;;;6116204;23;19905;-85
2022/04/07 11:21:45;;;;;;;;;;;12.20;92.50;;;;;;6089662;23;19921;-85
2022/04/07 11:24:26;;;;;;;;;;;12.30;92.10;;;;;;6149164;23;19927;-86
2022/04/07 11:27:23;;;;;;;;;;;12.40;91.40;;;;;;6114711;23;19925;-85
2022/04/07 11:30:25;;;;;;;;;;;12.40;91.50;;;;;;6116362;23;19921;-85
2022/04/07 11:33:15;;;;;;;;;;;12.50;91.20;;;;;;6117714;23;19913;-87
2022/04/07 11:36:10;;;;;;;;;;;12.80;91.30;;;;;;6117949;23;19921;-85
2022/04/07 11:38:43;;;;;;;;;;;12.60;90.90;;;;;;6135116;23;19927;-83
2022/04/07 11:41:17;;;;;;;;;;;12.80;91.40;;;;;;6110867;23;19921;-83
2022/04/07 11:43:53;;;;;;;;;;;12.40;90.30;;;;;;6114406;23;19921;-83
2022/04/07 11:46:40;;;;;;;;;;;12.80;90.40;;;;;;6132106;23;19922;-84
2022/04/07 11:49:11;;;;;;;;;;;12.90;90.90;;;;;;6109984;23;19921;-85
2022/04/07 11:51:54;;;;;;;;;;;12.60;90.60;;;;;;6110675;23;19935;-85
2022/04/07 11:54:24;;;;;;;;;;;12.50;89.70;;;;;;6136826;23;19924;-84
2022/04/07 11:56:58;;;;;;;;;;;12.50;90.00;;;;;;6111543;23;19928;-84
2022/04/07 11:59:37;;;;;;;;;;;12.80;90.40;;;;;;6112833;23;19931;-83
2022/04/07 12:02:11;;;;;;;;;;;12.40;90.70;;;;;;6110898;23;19921;-84
2022/04/07 12:04:41;;;;;;;;;;;12.40;90.30;;;;;;6111744;23;19936;-84
2022/04/07 12:07:13;;;;;;;;;;;12.40;90.80;;;;;;6135566;23;19931;-84
2022/04/07 12:09:44;;;;;;;;;;;12.60;89.70;;;;;;6135486;23;19943;-83
2022/04/07 12:12:19;;;;;;;;;;;12.60;87.40;;;;;;6110505;23;19921;-83
2022/04/07 12:14:52;;;;;;;;;;;12.50;86.60;;;;;;6110811;23;19974;-83
2022/04/07 12:17:25;;;;;;;;;;;12.30;87.20;;;;;;6109457;23;19929;-85
2022/04/07 12:19:56;;;;;;;;;;;12.30;86.20;;;;;;6109088;23;19921;-83
2022/04/07 12:22:37;;;;;;;;;;;12.30;87.00;;;;;;6120746;23;19925;-84
2022/04/07 12:25:23;;;;;;;;;;;12.30;86.30;;;;;;6113825;23;19929;-83
2022/04/07 12:28:17;;;;;;;;;;;12.70;85.20;;;;;;6143349;23;19929;-82
2022/04/07 12:30:51;;;;;;;;;;;12.70;85.80;;;;;;6107116;23;20456;-83
2022/04/07 12:34:00;;;;;;;;;;;13.10;85.90;;;;;;6112005;23;19925;-83
2022/04/07 12:36:37;;;;;;;;;;;13.30;83.30;;;;;;6113176;23;19925;-83
2022/04/07 12:39:11;;;;;;;;;;;13.50;82.60;;;;;;6111189;23;19921;-84
2022/04/07 12:41:51;;;;;;;;;;;13.60;83.70;;;;;;6111853;23;19921;-82
2022/04/07 12:44:22;;;;;;;;;;;13.70;82.50;;;;;;6108941;23;19925;-83
2022/04/07 12:47:13;;;;;;;;;;;13.80;81.70;;;;;;6131458;23;19921;-83
2022/04/07 12:49:55;;;;;;;;;;;13.90;81.30;;;;;;6086455;23;19931;-85
2022/04/07 12:52:55;;;;;;;;;;;13.70;81.80;;;;;;6111381;23;19921;-84
2022/04/07 12:55:36;;;;;;;;;;;13.30;81.00;;;;;;6110314;23;20235;-84
2022/04/07 12:58:12;;;;;;;;;;;13.80;80.80;;;;;;6107628;23;19921;-84
2022/04/07 13:01:00;;;;;;;;;;;13.90;81.50;;;;;;6110223;23;19935;-83
2022/04/07 13:03:51;;;;;;;;;;;13.50;79.20;;;;;;6131114;23;19932;-84
2022/04/07 13:06:24;;;;;;;;;;;14.00;78.70;;;;;;6096533;23;19925;-84
2022/04/07 13:08:55;;;;;;;;;;;13.90;78.80;;;;;;6122768;23;19936;-82
2022/04/07 13:11:40;;;;;;;;;;;13.90;79.10;;;;;;6109443;23;20105;-83
2022/04/07 13:14:11;;;;;;;;;;;14.40;79.20;;;;;;6108520;23;19931;-83
2022/04/07 13:16:44;;;;;;;;;;;13.70;76.60;;;;;;6111208;23;19929;-84
2022/04/07 13:19:13;;;;;;;;;;;14.00;77.50;;;;;;6110730;23;19935;-83
2022/04/07 13:21:54;;;;;;;;;;;14.40;76.50;;;;;;6117266;23;19931;-85
2022/04/07 13:24:25;;;;;;;;;;;14.10;77.70;;;;;;6094232;23;19925;-83
2022/04/07 13:26:58;;;;;;;;;;;12.80;75.50;;;;;;6112168;23;19925;-83
2022/04/07 13:29:30;;;;;;;;;;;14.10;76.50;;;;;;6106673;23;19936;-83
2022/04/07 13:32:01;;;;;;;;;;;14.10;77.70;;;;;;6143028;23;19932;-84
2022/04/07 13:34:39;;;;;;;;;;;14.50;76.50;;;;;;6143733;23;19925;-85
2022/04/07 13:37:13;;;;;;;;;;;14.10;75.10;;;;;;6110650;23;19925;-83
2022/04/07 13:39:45;;;;;;;;;;;14.20;75.00;;;;;;6119952;23;19925;-84
2022/04/07 13:42:39;;;;;;;;;;;14.20;76.60;;;;;;6098690;23;19931;-84
2022/04/07 13:45:17;;;;;;;;;;;14.60;76.20;;;;;;6108159;23;20132;-83
2022/04/07 13:48:03;;;;;;;;;;;14.40;75.30;;;;;;6107392;23;19928;-84
2022/04/07 13:50:32;;;;;;;;;;;14.30;73.80;;;;;;6118358;23;19925;-83
2022/04/07 13:53:02;;;;;;;;;;;15.30;75.50;;;;;;6083635;23;19921;-84
2022/04/07 13:55:34;;;;;;;;;;;13.80;73.80;;;;;;6132713;23;19926;-83
2022/04/07 13:58:03;;;;;;;;;;;13.90;75.60;;;;;;6111887;23;19921;-82
2022/04/07 14:00:35;;;;;;;;;;;14.00;73.80;;;;;;6106383;23;19925;-83
2022/04/07 14:03:06;;;;;;;;;;;13.90;73.10;;;;;;6133277;23;19936;-86
2022/04/07 14:05:46;;;;;;;;;;;14.60;73.90;;;;;;6111633;23;19921;-85
2022/04/07 14:08:29;;;;;;;;;;;15.20;72.80;;;;;;6109065;23;19921;-84
2022/04/07 14:11:09;;;;;;;;;;;15.20;73.30;;;;;;6086192;23;19921;-85
2022/04/07 14:13:38;;;;;;;;;;;15.70;71.40;;;;;;6144300;23;19925;-84
2022/04/07 14:16:25;;;;;;;;;;;15.80;69.50;;;;;;6110700;23;19929;-84
2022/04/07 14:19:04;;;;;;;;;;;15.70;67.80;;;;;;6109726;23;19927;-84
2022/04/07 14:21:36;;;;;;;;;;;16.00;67.60;;;;;;6107002;23;19925;-84
2022/04/07 14:24:04;;;;;;;;;;;15.80;68.60;;;;;;6111235;23;19925;-85
2022/04/07 14:26:49;;;;;;;;;;;16.10;69.10;;;;;;6130789;23;19925;-86
2022/04/07 14:29:20;;;;;;;;;;;16.30;66.80;;;;;;6109961;23;20193;-86
2022/04/07 14:31:55;;;;;;;;;;;16.40;64.40;;;;;;6107526;23;20257;-84
2022/04/07 14:34:26;;;;;;;;;;;16.40;65.30;;;;;;6112545;23;19929;-84
2022/04/07 14:36:54;;;;;;;;;;;16.60;64.40;;;;;;6118871;23;19925;-83
2022/04/07 14:39:32;;;;;;;;;;;17.40;64.50;;;;;;6133965;23;19949;-84
2022/04/07 14:42:06;;;;;;;;;;;16.30;64.50;;;;;;6109357;23;19925;-84
2022/04/07 14:44:37;;;;;;;;;;;16.30;64.80;;;;;;6110873;23;19921;-85
2022/04/07 14:47:11;;;;;;;;;;;16.20;65.20;;;;;;6144727;23;19936;-84
2022/04/07 14:49:40;;;;;;;;;;;16.40;64.80;;;;;;6119413;23;19921;-84
2022/04/07 14:52:23;;;;;;;;;;;;;;;;;;;;;
2022/04/07 14:54:57;;;;;;;;;;;16.40;64.60;;;;;;6109631;23;19925;-84
2022/04/07 14:57:29;;;;;;;;;;;17.30;65.00;;;;;;6134729;23;19921;-85
2022/04/07 15:00:10;;;;;;;;;;;16.40;65.30;;;;;;6083672;23;19925;-84